createdAt,value
2023-11-25T00:00:14.579Z,97463.88
2023-11-25T00:03:02.686Z,97452.53
2023-11-25T00:05:52.108Z,97455.47
2023-11-25T00:08:40.140Z,97454.81
2023-11-25T00:11:30.097Z,97460.81
2023-11-25T00:14:18.152Z,97459.00
2023-11-25T00:17:06.418Z,97454.84
2023-11-25T00:19:54.471Z,97455.06
2023-11-25T00:22:43.710Z,97452.22
2023-11-25T00:25:34.565Z,97425.84
2023-11-25T00:28:24.143Z,97412.47
2023-11-25T00:31:12.173Z,97448.13
2023-11-25T00:33:59.986Z,97442.78
2023-11-25T00:36:48.129Z,97439.94
2023-11-25T00:39:37.667Z,97423.66
2023-11-25T00:42:25.737Z,97415.84
2023-11-25T00:45:16.132Z,97415.84
2023-11-25T00:48:04.366Z,97399.41
2023-11-25T00:50:52.309Z,97411.72
2023-11-25T00:53:40.464Z,97388.91
2023-11-25T00:56:29.782Z,97396.94
2023-11-25T00:59:17.623Z,97386.06
2023-11-25T01:02:06.851Z,97378.03
2023-11-25T01:04:54.790Z,97379.44
2023-11-25T01:07:42.863Z,97371.03
2023-11-25T01:10:30.746Z,97355.16
2023-11-25T01:13:20.003Z,97350.63
2023-11-25T01:16:17.979Z,97340.56
2023-11-25T01:19:06.219Z,97351.63
2023-11-25T01:21:54.126Z,97348.56
2023-11-25T01:24:42.138Z,97341.75
2023-11-25T01:27:30.096Z,97333.09
2023-11-25T01:30:21.236Z,97326.50
2023-11-25T01:33:09.933Z,97318.72
2023-11-25T01:35:58.154Z,97319.94
2023-11-25T01:38:46.139Z,97320.38
2023-11-25T01:41:34.130Z,97324.88
2023-11-25T01:44:23.465Z,97318.72
2023-11-25T01:47:14.050Z,97323.03
2023-11-25T01:50:03.893Z,97318.91
2023-11-25T01:52:54.614Z,97288.63
2023-11-25T01:55:43.156Z,97311.50
2023-11-25T01:58:32.194Z,97305.50
2023-11-25T02:01:21.539Z,97296.28
2023-11-25T02:04:11.632Z,97292.34
2023-11-25T02:07:00.017Z,97282.25
2023-11-25T02:09:47.932Z,97291.53
2023-11-25T02:12:39.295Z,97287.81
2023-11-25T02:15:27.302Z,97219.66
2023-11-25T02:18:17.951Z,97254.03
2023-11-25T02:21:08.485Z,97273.22
2023-11-25T02:23:57.723Z,97265.59
2023-11-25T02:26:45.795Z,97255.69
2023-11-25T02:29:34.290Z,97261.88
2023-11-25T02:32:22.556Z,97263.94
2023-11-25T02:35:10.956Z,97261.03
2023-11-25T02:37:59.813Z,97252.63
2023-11-25T02:40:50.362Z,97247.47
2023-11-25T02:43:38.330Z,97243.13
2023-11-25T02:46:26.185Z,97243.97
2023-11-25T02:49:14.174Z,97243.78
2023-11-25T02:52:02.434Z,97248.91
2023-11-25T02:54:50.816Z,97238.41
2023-11-25T02:57:44.525Z,97228.53
2023-11-25T03:00:38.024Z,97226.88
2023-11-25T03:03:26.141Z,97219.06
2023-11-25T03:06:14.365Z,97215.13
2023-11-25T03:09:02.549Z,97207.13
2023-11-25T03:11:50.649Z,97199.09
2023-11-25T03:14:39.935Z,97193.31
2023-11-25T03:17:29.445Z,97190.88
2023-11-25T03:20:18.022Z,97178.72
2023-11-25T03:23:05.958Z,97170.50
2023-11-25T03:25:54.218Z,97165.56
2023-11-25T03:28:42.606Z,97145.78
2023-11-25T03:31:32.158Z,97140.69
2023-11-25T03:34:20.270Z,97127.50
2023-11-25T03:37:09.812Z,97128.13
2023-11-25T03:39:57.891Z,97125.41
2023-11-25T03:42:46.140Z,97118.63
2023-11-25T03:45:34.310Z,97118.41
2023-11-25T03:48:23.661Z,97106.66
2023-11-25T03:51:12.791Z,97102.16
2023-11-25T03:54:00.668Z,97097.41
2023-11-25T03:56:48.770Z,97071.06
2023-11-25T03:59:36.802Z,97075.78
2023-11-25T04:02:24.959Z,97066.31
2023-11-25T04:05:15.050Z,97067.16
2023-11-25T04:08:02.977Z,97064.22
2023-11-25T04:10:52.303Z,97060.34
2023-11-25T04:13:40.291Z,97060.31
2023-11-25T04:16:28.261Z,97061.31
2023-11-25T04:19:17.401Z,97071.59
2023-11-25T04:22:07.121Z,97068.94
2023-11-25T04:24:55.107Z,97066.72
2023-11-25T04:27:43.351Z,97078.63
2023-11-25T04:30:31.475Z,97065.44
2023-11-25T04:33:19.824Z,97067.91
2023-11-25T04:36:09.255Z,97058.47
2023-11-25T04:39:00.392Z,97046.72
2023-11-25T04:41:49.455Z,97049.19
2023-11-25T04:44:38.779Z,97033.13
2023-11-25T04:47:27.654Z,97027.19
2023-11-25T04:50:16.555Z,97018.34
2023-11-25T04:53:04.746Z,97029.25
2023-11-25T04:55:54.354Z,97028.81
2023-11-25T04:58:42.884Z,97029.66
2023-11-25T05:01:31.372Z,97014.38
2023-11-25T05:04:19.554Z,97020.53
2023-11-25T05:07:07.522Z,97004.53
2023-11-25T05:09:55.485Z,97016.03
2023-11-25T05:12:46.167Z,97009.91
2023-11-25T05:15:34.511Z,96984.78
2023-11-25T05:18:23.038Z,96998.53
2023-11-25T05:21:11.967Z,96992.41
2023-11-25T05:23:59.847Z,96978.44
2023-11-25T05:26:47.786Z,96989.50
2023-11-25T05:29:37.132Z,96992.59
2023-11-25T05:32:25.433Z,96981.88
2023-11-25T05:35:14.392Z,96980.06
2023-11-25T05:38:02.606Z,96965.47
2023-11-25T05:40:50.616Z,96968.34
2023-11-25T05:43:40.477Z,96972.03
2023-11-25T05:46:30.197Z,96969.81
2023-11-25T05:49:18.561Z,96954.72
2023-11-25T05:52:06.897Z,96943.44
2023-11-25T05:54:56.943Z,96946.31
2023-11-25T05:57:45.773Z,96945.66
2023-11-25T06:00:33.787Z,96940.72
2023-11-25T06:03:24.555Z,96947.69
2023-11-25T06:06:14.069Z,96948.13
2023-11-25T06:09:02.081Z,96946.47
2023-11-25T06:11:52.396Z,96942.59
2023-11-25T06:14:40.362Z,96945.66
2023-11-25T06:17:28.594Z,96932.72
2023-11-25T06:20:18.408Z,96943.78
2023-11-25T06:23:06.367Z,96923.13
2023-11-25T06:25:54.605Z,96934.41
2023-11-25T06:28:44.026Z,96902.03
2023-11-25T06:31:32.992Z,96940.22
2023-11-25T06:34:21.238Z,96926.22
2023-11-25T06:37:11.004Z,96932.94
2023-11-25T06:39:59.142Z,96923.34
2023-11-25T06:42:47.102Z,96935.63
2023-11-25T06:45:35.898Z,96921.72
2023-11-25T06:48:25.160Z,96949.81
2023-11-25T06:51:13.451Z,96952.25
2023-11-25T06:54:02.875Z,96945.03
2023-11-25T06:56:56.342Z,96936.41
2023-11-25T06:59:46.893Z,96929.41
2023-11-25T07:02:35.094Z,96916.47
2023-11-25T07:05:23.338Z,96918.88
2023-11-25T07:08:11.984Z,96903.06
2023-11-25T07:11:06.225Z,96909.97
2023-11-25T07:13:55.366Z,96914.56
2023-11-25T07:16:43.529Z,96926.03
2023-11-25T07:19:31.631Z,96932.59
2023-11-25T07:22:21.152Z,96909.97
2023-11-25T07:25:13.255Z,96914.88
2023-11-25T07:28:02.677Z,96898.75
2023-11-25T07:30:51.008Z,96910.63
2023-11-25T07:33:39.514Z,96900.34
2023-11-25T07:36:27.537Z,96911.06
2023-11-25T07:39:20.903Z,96911.59
2023-11-25T07:42:09.633Z,96917.59
2023-11-25T07:44:59.126Z,96903.56
2023-11-25T07:47:47.618Z,96896.13
2023-11-25T07:50:36.291Z,96891.28
2023-11-25T07:53:24.702Z,96900.31
2023-11-25T07:56:12.735Z,96903.44
2023-11-25T07:59:03.082Z,96888.47
2023-11-25T08:01:54.524Z,96877.94
2023-11-25T08:04:42.842Z,96895.31
2023-11-25T08:07:30.847Z,96901.34
2023-11-25T08:10:19.260Z,96893.31
2023-11-25T08:13:07.199Z,96890.19
2023-11-25T08:15:56.590Z,96890.09
2023-11-25T08:18:47.280Z,96906.25
2023-11-25T08:21:35.267Z,96890.19
2023-11-25T08:24:24.402Z,96883.56
2023-11-25T08:27:12.449Z,96860.09
2023-11-25T08:30:00.355Z,96872.47
2023-11-25T08:32:48.833Z,96870.78
2023-11-25T08:35:39.982Z,96873.00
2023-11-25T08:38:28.358Z,96871.53
2023-11-25T08:41:18.109Z,96868.69
2023-11-25T08:44:07.893Z,96870.25
2023-11-25T08:46:58.028Z,96856.78
2023-11-25T08:49:46.782Z,96858.78
2023-11-25T08:52:40.243Z,96843.50
2023-11-25T08:55:28.492Z,96843.31
2023-11-25T08:58:16.294Z,96843.66
2023-11-25T09:01:06.063Z,96842.97
2023-11-25T09:03:53.975Z,96849.59
2023-11-25T09:06:42.417Z,96842.75
2023-11-25T09:09:31.810Z,96852.31
2023-11-25T09:12:20.813Z,96838.59
2023-11-25T09:15:10.250Z,96853.06
2023-11-25T09:17:58.268Z,96852.09
2023-11-25T09:20:46.380Z,96842.09
2023-11-25T09:23:35.039Z,96845.09
2023-11-25T09:26:25.806Z,96861.06
2023-11-25T09:29:13.670Z,96874.41
2023-11-25T09:32:01.699Z,96869.28
2023-11-25T09:34:52.040Z,96884.69
2023-11-25T09:37:40.239Z,96894.81
2023-11-25T09:40:30.694Z,96891.72
2023-11-25T09:43:22.474Z,96900.34
2023-11-25T09:46:10.749Z,96897.28
2023-11-25T09:48:58.681Z,96910.63
2023-11-25T09:51:48.985Z,96898.50
2023-11-25T09:54:37.514Z,96912.66
2023-11-25T09:57:33.430Z,96914.91
2023-11-25T10:00:23.635Z,96934.22
2023-11-25T10:03:15.162Z,96910.75
2023-11-25T10:06:03.666Z,96914.03
2023-11-25T10:08:51.834Z,96911.78
2023-11-25T10:11:43.979Z,96924.06
2023-11-25T10:14:32.636Z,96912.94
2023-11-25T10:17:23.135Z,96922.81
2023-11-25T10:20:11.735Z,96899.81
2023-11-25T10:22:59.884Z,96900.81
2023-11-25T10:25:48.128Z,96900.16
2023-11-25T10:28:37.667Z,96897.03
2023-11-25T10:31:28.927Z,96903.97
2023-11-25T10:34:18.408Z,96927.34
2023-11-25T10:37:07.179Z,96911.88
2023-11-25T10:39:55.397Z,96913.97
2023-11-25T10:42:44.404Z,96925.09
2023-11-25T10:45:33.548Z,96927.50
2023-11-25T10:48:22.026Z,96931.72
2023-11-25T10:51:12.636Z,96930.91
2023-11-25T10:54:01.668Z,96933.06
2023-11-25T10:56:50.356Z,96935.75
2023-11-25T10:59:41.191Z,96928.56
2023-11-25T11:02:33.499Z,96895.84
2023-11-25T11:05:29.769Z,96879.88
2023-11-25T11:08:26.929Z,96918.13
2023-11-25T11:11:18.843Z,96919.31
2023-11-25T11:14:14.069Z,96918.50
2023-11-25T11:17:11.011Z,96910.47
2023-11-25T11:20:01.616Z,96889.56
2023-11-25T11:22:50.355Z,96925.50
2023-11-25T11:25:49.087Z,96918.59
2023-11-25T11:28:45.202Z,96948.50
2023-11-25T11:32:08.720Z,96936.97
2023-11-25T11:34:57.733Z,96923.78
2023-11-25T11:37:50.120Z,96916.69
2023-11-25T11:40:39.747Z,96934.91
2023-11-25T11:43:30.124Z,96922.16
2023-11-25T11:46:18.117Z,96934.81
2023-11-25T11:49:07.728Z,96929.50
2023-11-25T11:52:02.656Z,96925.34
2023-11-25T11:54:50.824Z,96926.00
2023-11-25T11:58:04.776Z,96908.13
2023-11-25T12:00:56.630Z,96894.66
2023-11-25T12:03:44.832Z,96913.66
2023-11-25T12:06:32.954Z,96903.81
2023-11-25T12:09:20.995Z,96904.03
2023-11-25T12:12:09.391Z,96901.78
2023-11-25T12:14:58.797Z,96902.19
2023-11-25T12:17:47.113Z,96907.72
2023-11-25T12:20:35.280Z,96915.25
2023-11-25T12:23:28.278Z,96888.75
2023-11-25T12:26:24.447Z,96922.25
2023-11-25T12:29:13.082Z,96930.59
2023-11-25T12:32:03.057Z,96927.13
2023-11-25T12:34:50.851Z,96923.28
2023-11-25T12:37:38.778Z,96927.41
2023-11-25T12:40:28.211Z,96918.44
2023-11-25T12:43:16.131Z,96921.19
2023-11-25T12:46:11.842Z,96924.03
2023-11-25T12:49:08.857Z,96924.31
2023-11-25T12:51:57.955Z,96915.22
2023-11-25T12:54:46.733Z,96924.31
2023-11-25T12:57:35.033Z,96938.13
2023-11-25T13:00:23.892Z,96927.13
2023-11-25T13:03:12.074Z,96933.84
2023-11-25T13:06:02.191Z,96936.13
2023-11-25T13:08:50.641Z,96936.22
2023-11-25T13:11:38.544Z,96930.09
2023-11-25T13:14:26.748Z,96929.34
2023-11-25T13:17:14.727Z,96915.22
2023-11-25T13:20:02.837Z,96909.94
2023-11-25T13:22:52.222Z,96909.94
2023-11-25T13:25:40.502Z,96905.16
2023-11-25T13:28:28.750Z,96916.34
2023-11-25T13:31:16.753Z,96921.00
2023-11-25T13:34:07.444Z,96891.69
2023-11-25T13:36:55.324Z,96867.47
2023-11-25T13:39:45.133Z,96870.25
2023-11-25T13:42:34.332Z,96867.41
2023-11-25T13:45:22.200Z,96901.06
2023-11-25T13:48:11.867Z,96879.38
2023-11-25T13:50:59.788Z,96897.47
2023-11-25T13:53:47.897Z,96918.78
2023-11-25T13:56:37.126Z,96897.63
2023-11-25T13:59:25.171Z,96913.13
2023-11-25T14:02:13.269Z,96912.47
2023-11-25T14:05:01.331Z,96904.13
2023-11-25T14:07:50.501Z,96909.09
2023-11-25T14:10:39.592Z,96890.22
2023-11-25T14:13:32.159Z,96906.44
2023-11-25T14:16:20.554Z,96904.63
2023-11-25T14:19:08.653Z,96886.94
2023-11-25T14:21:56.797Z,96859.66
2023-11-25T14:24:44.776Z,96888.72
2023-11-25T14:27:35.207Z,96895.66
2023-11-25T14:30:29.740Z,96898.38
2023-11-25T14:33:17.854Z,96886.88
2023-11-25T14:36:06.563Z,96884.88
2023-11-25T14:38:54.591Z,96890.72
2023-11-25T14:41:42.507Z,96907.03
2023-11-25T14:44:30.613Z,96910.34
2023-11-25T14:47:20.203Z,96916.06
2023-11-25T14:50:12.294Z,96917.34
2023-11-25T14:53:01.043Z,96905.44
2023-11-25T14:55:51.578Z,96921.09
2023-11-25T14:58:39.699Z,96906.44
2023-11-25T15:01:27.961Z,96884.19
2023-11-25T15:04:17.710Z,96892.63
2023-11-25T15:07:06.131Z,96875.00
2023-11-25T15:09:54.445Z,96835.78
2023-11-25T15:12:42.304Z,96882.34
2023-11-25T15:15:30.448Z,96873.69
2023-11-25T15:18:18.541Z,96864.81
2023-11-25T15:21:08.826Z,96852.53
2023-11-25T15:23:57.480Z,96823.53
2023-11-25T15:26:45.340Z,96814.53
2023-11-25T15:29:33.550Z,96827.06
2023-11-25T15:32:21.527Z,96820.13
2023-11-25T15:35:10.576Z,96815.06
2023-11-25T15:37:59.903Z,96812.00
2023-11-25T15:40:48.314Z,96817.22
2023-11-25T15:43:37.664Z,96826.06
2023-11-25T15:46:25.826Z,96817.44
2023-11-25T15:49:14.088Z,96841.25
2023-11-25T15:52:02.054Z,96847.28
2023-11-25T15:54:51.817Z,96853.25
2023-11-25T15:57:39.976Z,96854.69
2023-11-25T16:00:28.641Z,96847.47
2023-11-25T16:03:17.967Z,96854.72
2023-11-25T16:06:07.161Z,96821.00
2023-11-25T16:08:55.154Z,96824.94
2023-11-25T16:11:44.407Z,96820.22
2023-11-25T16:14:32.446Z,96813.75
2023-11-25T16:17:21.821Z,96814.09
2023-11-25T16:20:11.383Z,96805.59
2023-11-25T16:23:00.143Z,96796.53
2023-11-25T16:25:48.230Z,96780.06
2023-11-25T16:28:38.126Z,96770.81
2023-11-25T16:31:26.304Z,96768.34
2023-11-25T16:34:14.459Z,96789.84
2023-11-25T16:37:02.687Z,96796.03
2023-11-25T16:39:50.620Z,96792.50
2023-11-25T16:42:38.953Z,96780.56
2023-11-25T16:45:28.317Z,96785.19
2023-11-25T16:48:16.254Z,96754.31
2023-11-25T16:51:05.349Z,96731.56
2023-11-25T16:53:53.405Z,96716.88
2023-11-25T16:56:41.500Z,96722.78
2023-11-25T16:59:29.668Z,96729.72
2023-11-25T17:02:19.602Z,96702.88
2023-11-25T17:05:09.315Z,96720.00
2023-11-25T17:07:57.393Z,96706.28
2023-11-25T17:10:46.182Z,96714.88
2023-11-25T17:13:34.290Z,96720.59
2023-11-25T17:16:26.905Z,96700.44
2023-11-25T17:19:16.378Z,96709.16
2023-11-25T17:22:05.165Z,96718.59
2023-11-25T17:24:53.448Z,96719.88
2023-11-25T17:27:41.405Z,96692.38
2023-11-25T17:30:30.129Z,96663.75
2023-11-25T17:33:18.272Z,96680.56
2023-11-25T17:36:08.414Z,96663.00
2023-11-25T17:38:56.290Z,96651.41
2023-11-25T17:41:45.046Z,96653.56
2023-11-25T17:44:34.133Z,96649.13
2023-11-25T17:47:22.861Z,96633.66
2023-11-25T17:50:12.903Z,96638.94
2023-11-25T17:53:09.708Z,96658.13
2023-11-25T17:56:03.001Z,96668.59
2023-11-25T17:58:51.422Z,96661.81
2023-11-25T18:01:39.840Z,96655.41
2023-11-25T18:04:28.001Z,96627.34
2023-11-25T18:07:16.343Z,96630.00
2023-11-25T18:10:07.242Z,96629.16
2023-11-25T18:12:56.345Z,96632.13
2023-11-25T18:15:46.064Z,96618.19
2023-11-25T18:18:34.407Z,96628.81
2023-11-25T18:21:22.563Z,96648.47
2023-11-25T18:24:11.263Z,96625.22
2023-11-25T18:27:00.756Z,96628.81
2023-11-25T18:29:48.920Z,96603.22
2023-11-25T18:32:37.739Z,96592.91
2023-11-25T18:35:26.390Z,96586.22
2023-11-25T18:38:15.050Z,96608.50
2023-11-25T18:41:07.642Z,96625.81
2023-11-25T18:43:57.226Z,96612.84
2023-11-25T18:46:47.759Z,96609.81
2023-11-25T18:49:36.088Z,96615.31
2023-11-25T18:52:25.403Z,96606.75
2023-11-25T18:55:13.794Z,96587.59
2023-11-25T18:58:01.917Z,96595.03
2023-11-25T19:00:51.975Z,96602.91
2023-11-25T19:03:40.360Z,96617.84
2023-11-25T19:06:29.423Z,96627.19
2023-11-25T19:09:18.757Z,96633.66
2023-11-25T19:12:12.222Z,96635.13
2023-11-25T19:15:00.833Z,96630.16
2023-11-25T19:17:50.756Z,96624.72
2023-11-25T19:20:39.523Z,96587.88
2023-11-25T19:23:27.967Z,96591.91
2023-11-25T19:26:16.809Z,96592.16
2023-11-25T19:29:05.536Z,96603.28
2023-11-25T19:31:55.327Z,96641.47
2023-11-25T19:34:45.307Z,96637.56
2023-11-25T19:37:33.667Z,96642.72
2023-11-25T19:40:24.824Z,96607.84
2023-11-25T19:43:13.183Z,96588.56
2023-11-25T19:46:01.684Z,96600.19
2023-11-25T19:48:50.214Z,96602.56
2023-11-25T19:51:39.904Z,96591.69
2023-11-25T19:54:28.202Z,96575.13
2023-11-25T19:57:16.623Z,96546.66
2023-11-25T20:00:06.458Z,96555.47
2023-11-25T20:02:55.017Z,96547.84
2023-11-25T20:05:43.394Z,96558.31
2023-11-25T20:08:33.229Z,96544.25
2023-11-25T20:11:21.313Z,96498.03
2023-11-25T20:14:09.644Z,96525.06
2023-11-25T20:16:58.636Z,96524.91
2023-11-25T20:19:50.176Z,96518.97
2023-11-25T20:22:38.455Z,96491.31
2023-11-25T20:25:28.027Z,96509.28
2023-11-25T20:28:16.035Z,96504.03
2023-11-25T20:31:04.431Z,96479.19
2023-11-25T20:33:52.993Z,96483.59
2023-11-25T20:36:41.233Z,96499.06
2023-11-25T20:39:29.779Z,96507.84
2023-11-25T20:42:20.018Z,96513.19
2023-11-25T20:45:09.197Z,96523.38
2023-11-25T20:47:57.275Z,96529.41
2023-11-25T20:50:45.317Z,96513.31
2023-11-25T20:53:33.264Z,96508.31
2023-11-25T20:56:21.495Z,96521.03
2023-11-25T20:59:10.901Z,96532.66
2023-11-25T21:01:59.092Z,96530.03
2023-11-25T21:04:47.384Z,96515.72
2023-11-25T21:07:35.266Z,96523.56
2023-11-25T21:10:23.268Z,96540.63
2023-11-25T21:13:11.360Z,96525.44
2023-11-25T21:16:01.313Z,96524.00
2023-11-25T21:18:49.221Z,96474.75
2023-11-25T21:21:37.400Z,96544.94
2023-11-25T21:24:25.465Z,96532.25
2023-11-25T21:27:13.264Z,96527.44
2023-11-25T21:30:01.143Z,96527.94
2023-11-25T21:32:50.987Z,96514.53
2023-11-25T21:35:39.272Z,96511.69
2023-11-25T21:38:31.358Z,96516.47
2023-11-25T21:41:19.221Z,96513.50
2023-11-25T21:44:07.558Z,96497.81
2023-11-25T21:46:55.940Z,96476.94
2023-11-25T21:49:45.464Z,96470.63
2023-11-25T21:52:36.296Z,96482.72
2023-11-25T21:55:25.552Z,96509.81
2023-11-25T21:58:15.882Z,96510.47
2023-11-25T22:01:05.271Z,96521.13
2023-11-25T22:03:53.442Z,96521.28
2023-11-25T22:06:42.909Z,96472.75
2023-11-25T22:09:31.834Z,96499.97
2023-11-25T22:12:19.754Z,96461.25
2023-11-25T22:15:08.661Z,96445.81
2023-11-25T22:17:56.776Z,96433.16
2023-11-25T22:20:44.734Z,96445.06
2023-11-25T22:23:34.477Z,96445.50
2023-11-25T22:26:32.986Z,96395.34
2023-11-25T22:29:21.554Z,96379.81
2023-11-25T22:32:10.753Z,96407.66
2023-11-25T22:34:58.744Z,96391.31
2023-11-25T22:37:46.907Z,96427.50
2023-11-25T22:40:36.293Z,96441.84
2023-11-25T22:43:24.373Z,96432.91
2023-11-25T22:46:12.418Z,96418.63
2023-11-25T22:49:00.600Z,96435.09
2023-11-25T22:51:49.001Z,96418.28
2023-11-25T22:54:37.288Z,96416.78
2023-11-25T22:57:27.851Z,96435.25
2023-11-25T23:00:29.141Z,96428.88
2023-11-25T23:03:17.377Z,96419.06
2023-11-25T23:06:09.580Z,96423.91
2023-11-25T23:08:57.475Z,96420.00
2023-11-25T23:11:45.789Z,96464.41
2023-11-25T23:14:35.350Z,96493.78
2023-11-25T23:17:23.227Z,96507.72
2023-11-25T23:20:12.813Z,96523.59
2023-11-25T23:23:00.880Z,96533.19
2023-11-25T23:25:49.769Z,96519.97
2023-11-25T23:28:38.016Z,96531.88
2023-11-25T23:31:28.079Z,96526.44
2023-11-25T23:34:16.235Z,96485.06
2023-11-25T23:37:04.056Z,96502.91
2023-11-25T23:39:52.025Z,96525.44
2023-11-25T23:42:40.479Z,96521.13
2023-11-25T23:45:28.556Z,96507.06
2023-11-25T23:48:18.802Z,96470.88
2023-11-25T23:51:08.042Z,96448.16
2023-11-25T23:53:56.172Z,96330.06
2023-11-25T23:56:44.484Z,96457.91
2023-11-25T23:59:32.542Z,96481.06
